Time;durP1;ratioP1;P1;durP2;ratioP2;P2;SDS_P1;SDS_P2;PMS_P1;PMS_P2;Temp;Humidity;BMP_temperature;BMP_pressure;BME280_temperature;BME280_humidity;BME280_pressure;Samples;Min_cycle;Max_cycle;Signal;HPM_P1;HPM_P2
2023/03/07 00:00:01;;;;;;;1.30;1.08;;;;;;;;;;1042950;28;20032;-27
2023/03/07 00:00:32;;;;;;;5.03;1.90;;;;;;;;;;1043076;28;20025;-27
2023/03/07 00:01:03;;;;;;;12.55;2.35;;;;;;;;;;1043722;28;20029;-28
2023/03/07 00:01:33;;;;;;;7.63;2.05;;;;;;;;;;1043457;28;20032;-26
2023/03/07 00:02:04;;;;;;;4.60;3.00;;;;;;;;;;1043822;28;20077;-27
2023/03/07 00:02:35;;;;;;;3.28;1.95;;;;;;;;;;1043300;28;20369;-28
2023/03/07 00:03:05;;;;;;;13.95;1.73;;;;;;;;;;1043623;28;20025;-26
2023/03/07 00:03:37;;;;;;;2.70;1.65;;;;;;;;;;1043207;28;20116;-27
2023/03/07 00:04:07;;;;;;;3.72;2.03;;;;;;;;;;1042534;28;20029;-27
2023/03/07 00:04:38;;;;;;;3.33;2.42;;;;;;;;;;1042410;28;20028;-27
2023/03/07 00:05:08;;;;;;;4.35;2.67;;;;;;;;;;1043654;28;20053;-26
2023/03/07 00:05:39;;;;;;;2.83;1.80;;;;;;;;;;1043534;28;20033;-26
2023/03/07 00:06:10;;;;;;;4.05;1.08;;;;;;;;;;1043460;28;20426;-26
2023/03/07 00:06:40;;;;;;;5.18;2.28;;;;;;;;;;1043561;28;20155;-27
2023/03/07 00:07:11;;;;;;;3.03;1.83;;;;;;;;;;1043655;28;20040;-26
2023/03/07 00:07:42;;;;;;;4.05;2.35;;;;;;;;;;1043201;28;20024;-26
2023/03/07 00:08:12;;;;;;;7.72;2.72;;;;;;;;;;1043845;28;20032;-26
2023/03/07 00:08:43;;;;;;;11.35;3.05;;;;;;;;;;1043394;28;20028;-26
2023/03/07 00:09:13;;;;;;;2.28;1.50;;;;;;;;;;1043536;28;20021;-27
2023/03/07 00:09:44;;;;;;;9.93;3.88;;;;;;;;;;1043612;28;20021;-26
2023/03/07 00:10:14;;;;;;;8.35;2.90;;;;;;;;;;1043696;28;20055;-26
2023/03/07 00:10:45;;;;;;;5.88;2.17;;;;;;;;;;1043717;28;20020;-26
2023/03/07 00:11:16;;;;;;;5.38;1.83;;;;;;;;;;1043599;28;20032;-27
2023/03/07 00:11:46;;;;;;;6.15;2.90;;;;;;;;;;1042833;28;20029;-26
2023/03/07 00:12:17;;;;;;;2.67;1.67;;;;;;;;;;1043618;28;20016;-27
2023/03/07 00:12:47;;;;;;;2.95;1.85;;;;;;;;;;1043519;28;20025;-26
2023/03/07 00:13:18;;;;;;;17.52;2.90;;;;;;;;;;1043781;28;20028;-27
2023/03/07 00:13:48;;;;;;;2.95;1.75;;;;;;;;;;1043309;28;20030;-26
2023/03/07 00:14:19;;;;;;;6.63;2.75;;;;;;;;;;1043566;28;20017;-25
2023/03/07 00:14:49;;;;;;;4.63;1.67;;;;;;;;;;1043661;28;20025;-26
2023/03/07 00:15:20;;;;;;;12.10;2.17;;;;;;;;;;1043583;28;20013;-26
2023/03/07 00:15:50;;;;;;;6.50;2.22;;;;;;;;;;1043533;28;20472;-27
2023/03/07 00:16:22;;;;;;;1.38;1.10;;;;;;;;;;1043544;28;20021;-26
2023/03/07 00:16:52;;;;;;;4.07;1.65;;;;;;;;;;1043644;28;20028;-26
2023/03/07 00:17:23;;;;;;;11.63;2.33;;;;;;;;;;1042642;28;20056;-25
2023/03/07 00:17:53;;;;;;;12.48;2.72;;;;;;;;;;1043635;28;20033;-27
2023/03/07 00:18:24;;;;;;;4.88;3.33;;;;;;;;;;1043498;28;20028;-26
2023/03/07 00:18:55;;;;;;;3.63;1.42;;;;;;;;;;1043408;28;20033;-26
2023/03/07 00:19:25;;;;;;;11.95;1.52;;;;;;;;;;1043447;28;20036;-27
2023/03/07 00:19:56;;;;;;;2.80;1.73;;;;;;;;;;1043704;28;20108;-26
2023/03/07 00:20:26;;;;;;;7.45;1.63;;;;;;;;;;1043549;28;20029;-25
2023/03/07 00:21:00;;;;;;;1.80;1.35;;;;;;;;;;1043208;28;20029;-26
2023/03/07 00:21:31;;;;;;;3.90;1.50;;;;;;;;;;1043097;28;20048;-26
2023/03/07 00:22:01;;;;;;;8.75;2.20;;;;;;;;;;1043051;28;20016;-26
2023/03/07 00:22:32;;;;;;;4.57;2.45;;;;;;;;;;1043526;28;20048;-27
2023/03/07 00:23:03;;;;;;;3.35;1.55;;;;;;;;;;1043676;28;20496;-27
2023/03/07 00:23:35;;;;;;;5.13;2.47;;;;;;;;;;1043397;28;20025;-26
2023/03/07 00:24:06;;;;;;;4.03;1.80;;;;;;;;;;1043653;28;20024;-25
2023/03/07 00:24:36;;;;;;;3.58;1.83;;;;;;;;;;1043552;28;20024;-26
2023/03/07 00:25:07;;;;;;;3.15;1.23;;;;;;;;;;1043610;28;20017;-26
2023/03/07 00:25:38;;;;;;;2.53;1.85;;;;;;;;;;1043421;28;20138;-27
2023/03/07 00:26:16;;;;;;;3.47;2.08;;;;;;;;;;1043799;28;20032;-26
2023/03/07 00:26:46;;;;;;;3.80;1.75;;;;;;;;;;1043322;28;20020;-26
2023/03/07 00:27:17;;;;;;;6.97;1.38;;;;;;;;;;1043135;28;20021;-26
2023/03/07 00:27:47;;;;;;;7.75;1.85;;;;;;;;;;1043594;28;20037;-26
2023/03/07 00:28:18;;;;;;;4.70;1.55;;;;;;;;;;1043512;28;20017;-27
2023/03/07 00:28:49;;;;;;;12.15;3.42;;;;;;;;;;1043288;28;20377;-26
2023/03/07 00:29:21;;;;;;;1.75;1.17;;;;;;;;;;1043396;28;20483;-26
2023/03/07 00:29:52;;;;;;;12.32;2.20;;;;;;;;;;1043640;28;20059;-26
2023/03/07 00:30:22;;;;;;;3.22;1.27;;;;;;;;;;1043606;28;20032;-26
2023/03/07 00:30:53;;;;;;;4.63;2.83;;;;;;;;;;1042382;28;20373;-27
2023/03/07 00:31:24;;;;;;;1.02;0.95;;;;;;;;;;1042336;28;20127;-26
2023/03/07 00:31:54;;;;;;;5.60;1.55;;;;;;;;;;1043609;28;20027;-26
2023/03/07 00:32:25;;;;;;;2.40;1.55;;;;;;;;;;1043700;28;20024;-27
2023/03/07 00:32:56;;;;;;;3.75;1.70;;;;;;;;;;1043582;28;20384;-26
2023/03/07 00:33:26;;;;;;;4.13;1.88;;;;;;;;;;1043698;28;20031;-26
2023/03/07 00:33:57;;;;;;;1.23;0.82;;;;;;;;;;1043479;28;20053;-26
2023/03/07 00:34:27;;;;;;;10.23;3.58;;;;;;;;;;1043509;28;20033;-26
2023/03/07 00:34:58;;;;;;;6.35;1.05;;;;;;;;;;1043603;28;20405;-26
2023/03/07 00:35:29;;;;;;;3.13;1.75;;;;;;;;;;1043349;28;20025;-26
2023/03/07 00:36:03;;;;;;;4.22;1.38;;;;;;;;;;1043060;28;20059;-26
2023/03/07 00:36:34;;;;;;;4.95;1.55;;;;;;;;;;1042394;28;20031;-27
2023/03/07 00:37:04;;;;;;;1.73;1.17;;;;;;;;;;1043396;28;20075;-26
2023/03/07 00:37:35;;;;;;;3.67;1.75;;;;;;;;;;1042645;28;20525;-27
2023/03/07 00:38:05;;;;;;;0.32;0.32;;;;;;;;;;1043148;28;20518;-27
2023/03/07 00:38:36;;;;;;;2.50;1.67;;;;;;;;;;1042890;28;20025;-27
2023/03/07 00:39:07;;;;;;;7.40;2.28;;;;;;;;;;1043251;28;20033;-26
2023/03/07 00:39:38;;;;;;;4.97;1.42;;;;;;;;;;1043413;28;20025;-26
2023/03/07 00:40:09;;;;;;;2.15;1.35;;;;;;;;;;1043642;28;20442;-27
2023/03/07 00:40:39;;;;;;;1.92;1.60;;;;;;;;;;1043236;28;20035;-26
2023/03/07 00:41:12;;;;;;;0.90;0.75;;;;;;;;;;1043125;28;20064;-27
2023/03/07 00:41:42;;;;;;;2.22;1.25;;;;;;;;;;1043178;28;20021;-26
2023/03/07 00:42:13;;;;;;;3.45;1.60;;;;;;;;;;1043605;28;20433;-26
2023/03/07 00:42:44;;;;;;;2.17;1.08;;;;;;;;;;1043371;28;20377;-26
2023/03/07 00:43:14;;;;;;;2.35;1.35;;;;;;;;;;1043563;28;20028;-26
2023/03/07 00:43:45;;;;;;;1.83;0.73;;;;;;;;;;1043330;28;20032;-27
2023/03/07 00:44:16;;;;;;;4.43;1.65;;;;;;;;;;1042533;28;20076;-27
2023/03/07 00:44:47;;;;;;;1.75;1.40;;;;;;;;;;1043454;28;20476;-26
2023/03/07 00:45:17;;;;;;;3.10;1.17;;;;;;;;;;1043571;28;20021;-26
2023/03/07 00:45:48;;;;;;;0.80;0.73;;;;;;;;;;1043346;28;20063;-27
2023/03/07 00:46:19;;;;;;;4.70;2.03;;;;;;;;;;1043521;28;20024;-27
2023/03/07 00:46:50;;;;;;;2.17;1.02;;;;;;;;;;1043615;28;20053;-26
2023/03/07 00:47:20;;;;;;;0.95;0.90;;;;;;;;;;1043324;28;20021;-26
2023/03/07 00:47:51;;;;;;;2.78;1.38;;;;;;;;;;1043720;28;20464;-26
2023/03/07 00:48:22;;;;;;;8.23;2.38;;;;;;;;;;1043267;28;20531;-27
2023/03/07 00:48:52;;;;;;;4.72;1.85;;;;;;;;;;1043904;28;20078;-26
2023/03/07 00:49:23;;;;;;;2.75;1.25;;;;;;;;;;1043332;28;20028;-27
2023/03/07 00:49:53;;;;;;;2.58;1.35;;;;;;;;;;1043393;28;20021;-27
2023/03/07 00:50:24;;;;;;;2.85;1.65;;;;;;;;;;1044209;28;20540;-26
2023/03/07 00:50:55;;;;;;;2.50;1.08;;;;;;;;;;1043978;28;20032;-27
2023/03/07 00:51:26;;;;;;;1.35;1.00;;;;;;;;;;1043571;28;20523;-27
2023/03/07 00:51:56;;;;;;;3.65;1.60;;;;;;;;;;1044027;28;20025;-27
2023/03/07 00:52:27;;;;;;;5.30;2.38;;;;;;;;;;1044182;28;20108;-26
2023/03/07 00:52:57;;;;;;;5.15;1.65;;;;;;;;;;1044166;28;20025;-27
2023/03/07 00:53:28;;;;;;;4.57;2.00;;;;;;;;;;1044067;28;20025;-27
2023/03/07 00:53:59;;;;;;;1.50;1.30;;;;;;;;;;1044087;28;20044;-26
2023/03/07 00:54:29;;;;;;;2.83;2.22;;;;;;;;;;1043649;28;20029;-26
2023/03/07 00:55:00;;;;;;;4.05;1.75;;;;;;;;;;1044196;28;20029;-26
2023/03/07 00:55:30;;;;;;;6.05;1.92;;;;;;;;;;1044277;28;20043;-26
2023/03/07 00:56:02;;;;;;;2.53;1.67;;;;;;;;;;1044409;28;20021;-27
2023/03/07 00:56:33;;;;;;;4.60;1.45;;;;;;;;;;1043970;28;20112;-27
2023/03/07 00:57:03;;;;;;;3.42;1.92;;;;;;;;;;1043994;28;20028;-26
2023/03/07 00:57:34;;;;;;;0.90;0.40;;;;;;;;;;1042824;28;20029;-26
2023/03/07 00:58:04;;;;;;;1.98;1.55;;;;;;;;;;1043688;28;20021;-26
2023/03/07 00:58:35;;;;;;;3.40;2.33;;;;;;;;;;1044127;28;20032;-26
2023/03/07 00:59:06;;;;;;;3.40;1.20;;;;;;;;;;1043717;28;20017;-27
2023/03/07 00:59:37;;;;;;;2.83;1.30;;;;;;;;;;1043023;28;20411;-26
2023/03/07 01:00:08;;;;;;;3.00;1.63;;;;;;;;;;1043932;28;20024;-26
2023/03/07 01:00:38;;;;;;;5.53;1.48;;;;;;;;;;1043603;28;20090;-26
2023/03/07 01:01:09;;;;;;;4.00;1.30;;;;;;;;;;1044421;28;20025;-27
2023/03/07 01:01:40;;;;;;;1.73;1.00;;;;;;;;;;1043952;28;20033;-26
2023/03/07 01:02:11;;;;;;;4.88;2.53;;;;;;;;;;1042665;28;20569;-27
2023/03/07 01:02:41;;;;;;;14.93;2.00;;;;;;;;;;1043483;28;20074;-26
2023/03/07 01:03:12;;;;;;;2.33;0.93;;;;;;;;;;1042500;28;20017;-26
2023/03/07 01:03:42;;;;;;;5.63;2.35;;;;;;;;;;1041586;28;20030;-27
2023/03/07 01:04:13;;;;;;;4.32;1.25;;;;;;;;;;1043646;28;20062;-26
2023/03/07 01:04:44;;;;;;;3.95;1.88;;;;;;;;;;1044109;28;20059;-26
2023/03/07 01:05:14;;;;;;;6.43;1.48;;;;;;;;;;1044234;28;20600;-27
2023/03/07 01:05:45;;;;;;;8.00;0.80;;;;;;;;;;1043931;28;20033;-26
2023/03/07 01:06:17;;;;;;;0.93;0.47;;;;;;;;;;1043812;28;20405;-26
2023/03/07 01:06:48;;;;;;;1.85;1.40;;;;;;;;;;1043869;28;20401;-26
2023/03/07 01:07:18;;;;;;;2.03;1.13;;;;;;;;;;1044075;28;20024;-26
2023/03/07 01:07:49;;;;;;;2.60;1.27;;;;;;;;;;1043117;28;20033;-26
2023/03/07 01:08:20;;;;;;;6.00;1.95;;;;;;;;;;1043328;28;20052;-27
2023/03/07 01:08:51;;;;;;;2.88;0.93;;;;;;;;;;1043848;28;20032;-27
2023/03/07 01:09:22;;;;;;;1.33;1.10;;;;;;;;;;1042296;28;20025;-26
2023/03/07 01:09:53;;;;;;;1.65;1.25;;;;;;;;;;1044136;28;20439;-26
2023/03/07 01:10:25;;;;;;;1.90;0.95;;;;;;;;;;1043784;28;20024;-26
2023/03/07 01:11:00;;;;;;;5.47;1.50;;;;;;;;;;1044156;28;20033;-27
2023/03/07 01:11:31;;;;;;;1.15;0.95;;;;;;;;;;1044108;28;20029;-26
2023/03/07 01:12:05;;;;;;;3.85;1.55;;;;;;;;;;1043420;28;20027;-26
2023/03/07 01:12:36;;;;;;;27.17;11.27;;;;;;;;;;1043809;28;20083;-27
2023/03/07 01:13:08;;;;;;;20.10;9.75;;;;;;;;;;1044080;28;20036;-26
2023/03/07 01:13:39;;;;;;;43.97;19.13;;;;;;;;;;1043717;28;20473;-26
2023/03/07 01:14:10;;;;;;;75.47;20.30;;;;;;;;;;1043913;28;20108;-26
2023/03/07 01:14:40;;;;;;;25.00;11.30;;;;;;;;;;1043963;28;20080;-26
2023/03/07 01:15:11;;;;;;;21.80;9.85;;;;;;;;;;1044207;28;20025;-26
2023/03/07 01:15:41;;;;;;;21.60;7.53;;;;;;;;;;1043254;28;20029;-27
2023/03/07 01:16:32;;;;;;;20.00;10.07;;;;;;;;;;1043499;28;20598;-28
2023/03/07 01:17:02;;;;;;;13.50;6.35;;;;;;;;;;1043717;28;20028;-26
2023/03/07 01:17:33;;;;;;;15.15;4.95;;;;;;;;;;1043146;28;20119;-27
2023/03/07 01:18:07;;;;;;;12.05;4.35;;;;;;;;;;1044441;28;20025;-26
2023/03/07 01:18:37;;;;;;;10.07;3.35;;;;;;;;;;1044311;28;20020;-27
2023/03/07 01:19:11;;;;;;;6.55;3.22;;;;;;;;;;1043025;28;20021;-27
2023/03/07 01:19:41;;;;;;;5.13;3.17;;;;;;;;;;1044292;28;20393;-26
2023/03/07 01:20:12;;;;;;;4.20;3.08;;;;;;;;;;1044082;28;20036;-26
2023/03/07 01:20:42;;;;;;;9.80;3.67;;;;;;;;;;1044014;28;20028;-27
2023/03/07 01:21:15;;;;;;;5.30;3.05;;;;;;;;;;1043005;28;20025;-26
2023/03/07 01:21:45;;;;;;;7.85;3.85;;;;;;;;;;1043092;28;20025;-26
2023/03/07 01:22:16;;;;;;;13.50;4.53;;;;;;;;;;1042372;28;20028;-26
2023/03/07 01:22:46;;;;;;;7.80;3.17;;;;;;;;;;1042958;28;20066;-27
2023/03/07 01:23:17;;;;;;;11.20;5.18;;;;;;;;;;1043219;28;20158;-27
2023/03/07 01:23:47;;;;;;;5.35;3.08;;;;;;;;;;1043431;28;20369;-27
2023/03/07 01:24:18;;;;;;;6.03;3.30;;;;;;;;;;1043858;28;20036;-26
2023/03/07 01:24:48;;;;;;;8.20;3.85;;;;;;;;;;1043833;28;20120;-27
2023/03/07 01:25:19;;;;;;;7.75;2.83;;;;;;;;;;1041755;28;20028;-26
2023/03/07 01:25:49;;;;;;;8.15;4.55;;;;;;;;;;1041688;28;20416;-28
2023/03/07 01:26:21;;;;;;;4.90;3.15;;;;;;;;;;1042480;28;20107;-27
2023/03/07 01:26:52;;;;;;;3.92;2.75;;;;;;;;;;1041931;28;20025;-27
2023/03/07 01:27:23;;;;;;;4.63;2.10;;;;;;;;;;1042668;28;20543;-26
2023/03/07 01:27:57;;;;;;;8.27;2.97;;;;;;;;;;1043090;28;20131;-28
2023/03/07 01:28:27;;;;;;;5.22;3.67;;;;;;;;;;1042286;28;20530;-27
2023/03/07 01:28:59;;;;;;;6.55;2.88;;;;;;;;;;1043260;28;20037;-27
2023/03/07 01:29:30;;;;;;;4.68;1.98;;;;;;;;;;1037688;28;20099;-27
2023/03/07 01:30:00;;;;;;;4.15;2.25;;;;;;;;;;1036619;28;20458;-26
2023/03/07 01:30:31;;;;;;;8.02;2.15;;;;;;;;;;1037202;28;20021;-27
2023/03/07 01:31:02;;;;;;;4.85;2.53;;;;;;;;;;1037602;28;20887;-26
2023/03/07 01:31:32;;;;;;;7.05;2.47;;;;;;;;;;1041896;28;20027;-27
2023/03/07 01:32:03;;;;;;;3.85;2.17;;;;;;;;;;1041963;28;20029;-27
2023/03/07 01:32:34;;;;;;;13.63;3.33;;;;;;;;;;1041569;28;20025;-28
2023/03/07 01:33:04;;;;;;;2.72;1.75;;;;;;;;;;1042277;28;20025;-27
2023/03/07 01:33:35;;;;;;;5.20;2.33;;;;;;;;;;1041070;28;20036;-26
2023/03/07 01:34:05;;;;;;;2.83;1.75;;;;;;;;;;1042215;28;20118;-26
2023/03/07 01:34:36;;;;;;;13.45;4.78;;;;;;;;;;1041854;28;20086;-27
2023/03/07 01:35:06;;;;;;;5.32;2.67;;;;;;;;;;1042312;28;20443;-27
2023/03/07 01:35:37;;;;;;;12.27;3.85;;;;;;;;;;1041958;28;20578;-27
2023/03/07 01:36:19;;;;;;;6.88;2.65;;;;;;;;;;1041649;28;20400;-26
2023/03/07 01:36:50;;;;;;;2.78;1.42;;;;;;;;;;1042882;28;20032;-26
2023/03/07 01:37:20;;;;;;;9.30;1.65;;;;;;;;;;1043174;28;20033;-27
2023/03/07 01:37:52;;;;;;;4.38;2.13;;;;;;;;;;1040959;28;20378;-26
2023/03/07 01:38:22;;;;;;;3.00;1.73;;;;;;;;;;1042920;28;20038;-27
2023/03/07 01:38:53;;;;;;;4.63;3.00;;;;;;;;;;1042604;28;20028;-26
2023/03/07 01:39:24;;;;;;;10.15;4.25;;;;;;;;;;1041787;28;20528;-26
2023/03/07 01:39:54;;;;;;;6.25;2.85;;;;;;;;;;1043398;28;20759;-27
2023/03/07 01:40:25;;;;;;;16.15;2.72;;;;;;;;;;1042950;28;20037;-27
2023/03/07 01:40:55;;;;;;;6.90;2.17;;;;;;;;;;1043345;28;20122;-27
2023/03/07 01:41:30;;;;;;;4.72;2.70;;;;;;;;;;1042963;28;20043;-26
2023/03/07 01:42:01;;;;;;;3.38;2.40;;;;;;;;;;1042902;28;20154;-28
2023/03/07 01:42:32;;;;;;;9.63;5.18;;;;;;;;;;1043295;28;20111;-26
2023/03/07 01:43:22;;;;;;;2.13;1.45;;;;;;;;;;1043766;28;20116;-26
2023/03/07 01:43:52;;;;;;;9.73;1.98;;;;;;;;;;1043186;28;20055;-27
2023/03/07 01:44:26;;;;;;;4.80;2.03;;;;;;;;;;1041912;28;20039;-27
2023/03/07 01:45:26;;;;;;;7.38;2.53;;;;;;;;;;1041653;28;20028;-25
2023/03/07 01:46:15;;;;;;;6.82;2.15;;;;;;;;;;1041415;28;20510;-26
2023/03/07 01:46:52;;;;;;;7.20;3.17;;;;;;;;;;1041619;28;20028;-27
2023/03/07 01:47:22;;;;;;;8.30;2.03;;;;;;;;;;1041326;28;20068;-26
2023/03/07 01:47:53;;;;;;;1.55;0.88;;;;;;;;;;1041468;28;20025;-27
2023/03/07 01:48:23;;;;;;;4.13;1.70;;;;;;;;;;1041622;28;20108;-27
2023/03/07 01:49:04;;;;;;;13.30;2.53;;;;;;;;;;1043361;28;20108;-27
2023/03/07 01:49:39;;;;;;;2.05;1.65;;;;;;;;;;1042414;28;20095;-26
2023/03/07 01:50:12;;;;;;;9.15;2.33;;;;;;;;;;1043728;28;20094;-26
2023/03/07 01:50:43;;;;;;;4.43;1.50;;;;;;;;;;1043241;28;20029;-26
2023/03/07 01:51:14;;;;;;;4.88;1.77;;;;;;;;;;1042697;28;20392;-26
2023/03/07 01:51:47;;;;;;;5.03;3.42;;;;;;;;;;1038867;28;20565;-27
2023/03/07 01:52:18;;;;;;;5.70;2.20;;;;;;;;;;1038681;28;20064;-27
2023/03/07 01:52:51;;;;;;;3.85;1.88;;;;;;;;;;1038744;28;20416;-26
2023/03/07 01:53:21;;;;;;;4.85;2.30;;;;;;;;;;1038979;28;20037;-27
2023/03/07 01:53:52;;;;;;;3.95;1.95;;;;;;;;;;1042837;28;20039;-27
2023/03/07 01:54:24;;;;;;;10.02;2.97;;;;;;;;;;1042732;28;20025;-27
2023/03/07 01:54:57;;;;;;;5.47;1.83;;;;;;;;;;1042149;28;20511;-27
2023/03/07 01:55:32;;;;;;;5.18;3.22;;;;;;;;;;1043031;28;20083;-27
2023/03/07 01:56:04;;;;;;;10.98;3.30;;;;;;;;;;1043251;28;20017;-28
2023/03/07 01:56:36;;;;;;;8.02;4.63;;;;;;;;;;1042592;28;20068;-28
2023/03/07 01:57:06;;;;;;;11.02;6.13;;;;;;;;;;1043396;28;20484;-27
2023/03/07 01:57:38;;;;;;;6.82;4.28;;;;;;;;;;1042517;28;20029;-26
2023/03/07 01:58:11;;;;;;;15.10;5.25;;;;;;;;;;1042946;28;20032;-27
2023/03/07 01:58:41;;;;;;;6.93;3.10;;;;;;;;;;1041377;28;20132;-26
2023/03/07 01:59:15;;;;;;;11.52;4.18;;;;;;;;;;1042337;28;20744;-26
2023/03/07 01:59:48;;;;;;;11.55;5.47;;;;;;;;;;1040182;28;20025;-27
2023/03/07 02:00:25;;;;;;;14.20;5.45;;;;;;;;;;1042418;28;20130;-26
2023/03/07 02:00:55;;;;;;;8.25;4.53;;;;;;;;;;1042880;28;20021;-26
2023/03/07 02:01:26;;;;;;;6.85;4.70;;;;;;;;;;1042659;28;20025;-26
2023/03/07 02:01:59;;;;;;;14.00;4.70;;;;;;;;;;1042781;28;20024;-28
2023/03/07 02:02:29;;;;;;;13.48;4.70;;;;;;;;;;1042621;28;20423;-28
2023/03/07 02:03:03;;;;;;;9.77;3.78;;;;;;;;;;1042421;28;20127;-28
2023/03/07 02:03:39;;;;;;;10.38;4.35;;;;;;;;;;1043002;28;20091;-27
2023/03/07 02:04:22;;;;;;;3.45;2.53;;;;;;;;;;1042047;28;20135;-26
2023/03/07 02:04:53;;;;;;;12.60;3.92;;;;;;;;;;1042893;28;20064;-27
2023/03/07 02:05:28;;;;;;;6.53;1.55;;;;;;;;;;1040436;28;20020;-26
2023/03/07 02:06:00;;;;;;;8.27;2.65;;;;;;;;;;1041644;28;20075;-26
2023/03/07 02:06:33;;;;;;;17.38;1.98;;;;;;;;;;1042172;28;20021;-27
2023/03/07 02:07:04;;;;;;;2.55;1.48;;;;;;;;;;1043015;28;20031;-27
2023/03/07 02:07:39;;;;;;;8.65;3.10;;;;;;;;;;1041183;28;20392;-28
2023/03/07 02:08:11;;;;;;;6.05;2.70;;;;;;;;;;1042463;28;20024;-27
2023/03/07 02:08:42;;;;;;;2.67;1.67;;;;;;;;;;1042919;28;20060;-28
2023/03/07 02:09:15;;;;;;;11.07;3.95;;;;;;;;;;1042428;28;20028;-27
2023/03/07 02:09:47;;;;;;;11.77;5.03;;;;;;;;;;1042297;28;20082;-27
2023/03/07 02:10:19;;;;;;;5.65;4.50;;;;;;;;;;1042239;28;20029;-28
2023/03/07 02:10:49;;;;;;;12.57;5.70;;;;;;;;;;1042531;28;20060;-28
2023/03/07 02:11:20;;;;;;;9.23;5.07;;;;;;;;;;1043150;28;20082;-28
2023/03/07 02:11:51;;;;;;;8.82;4.68;;;;;;;;;;1041877;28;20409;-28
2023/03/07 02:12:22;;;;;;;10.90;6.00;;;;;;;;;;1043274;28;20027;-27
2023/03/07 02:12:53;;;;;;;16.33;5.22;;;;;;;;;;1042940;28;20024;-28
2023/03/07 02:13:23;;;;;;;7.47;4.30;;;;;;;;;;1041749;28;20480;-28
2023/03/07 02:13:54;;;;;;;7.63;4.97;;;;;;;;;;1041989;28;20505;-29
2023/03/07 02:14:25;;;;;;;14.43;4.22;;;;;;;;;;1043412;28;20435;-28
2023/03/07 02:14:55;;;;;;;16.25;4.72;;;;;;;;;;1042964;28;20551;-29
2023/03/07 02:15:26;;;;;;;6.57;3.83;;;;;;;;;;1043151;28;20389;-27
2023/03/07 02:15:58;;;;;;;15.75;3.55;;;;;;;;;;1043376;28;20063;-27
2023/03/07 02:16:30;;;;;;;4.50;2.72;;;;;;;;;;1043169;28;20115;-26
2023/03/07 02:17:01;;;;;;;8.82;3.63;;;;;;;;;;1042634;28;20028;-28
2023/03/07 02:17:31;;;;;;;13.90;3.30;;;;;;;;;;1042423;28;20020;-28
2023/03/07 02:18:03;;;;;;;5.30;3.55;;;;;;;;;;1042663;28;20111;-28
2023/03/07 02:18:36;;;;;;;9.43;4.88;;;;;;;;;;1042658;28;20070;-27
2023/03/07 02:19:13;;;;;;;8.13;3.53;;;;;;;;;;1042996;28;20037;-27
2023/03/07 02:19:50;;;;;;;5.18;2.45;;;;;;;;;;1040828;28;20103;-28
2023/03/07 02:20:21;;;;;;;2.97;2.10;;;;;;;;;;1041871;28;20024;-27
2023/03/07 02:21:03;;;;;;;9.90;2.13;;;;;;;;;;1041756;28;20128;-28
2023/03/07 02:21:49;;;;;;;4.00;2.38;;;;;;;;;;1044597;28;20017;-26
2023/03/07 02:22:20;;;;;;;3.95;2.45;;;;;;;;;;1043066;28;20040;-28
2023/03/07 02:22:51;;;;;;;16.75;2.70;;;;;;;;;;1042318;28;20057;-26
2023/03/07 02:23:35;;;;;;;3.50;2.10;;;;;;;;;;1043026;28;20032;-26
2023/03/07 02:24:18;;;;;;;6.40;2.97;;;;;;;;;;1041197;28;20167;-29
2023/03/07 02:24:55;;;;;;;7.70;2.05;;;;;;;;;;1038985;28;20078;-27
2023/03/07 02:25:32;;;;;;;2.75;1.77;;;;;;;;;;1040564;28;20767;-27
2023/03/07 02:26:38;;;;;;;5.45;2.22;;;;;;;;;;1042441;28;20087;-26
2023/03/07 02:27:08;;;;;;;18.50;2.72;;;;;;;;;;1030855;28;20034;-28
2023/03/07 02:27:40;;;;;;;3.85;1.65;;;;;;;;;;1030501;28;20019;-28
2023/03/07 02:28:12;;;;;;;2.53;1.67;;;;;;;;;;1030440;28;20910;-28
2023/03/07 02:28:44;;;;;;;6.82;1.35;;;;;;;;;;1028923;28;20157;-29
2023/03/07 02:29:15;;;;;;;9.68;2.30;;;;;;;;;;1025870;28;20398;-28
2023/03/07 02:29:45;;;;;;;6.55;2.35;;;;;;;;;;1029920;28;20031;-28
2023/03/07 02:30:16;;;;;;;10.20;2.33;;;;;;;;;;1039393;28;20827;-28
2023/03/07 02:30:57;;;;;;;4.95;2.47;;;;;;;;;;1036990;28;20497;-28
2023/03/07 02:31:27;;;;;;;7.60;1.52;;;;;;;;;;1042508;28;20484;-28
2023/03/07 02:31:58;;;;;;;4.00;1.95;;;;;;;;;;1042774;28;20523;-28
2023/03/07 02:32:28;;;;;;;3.08;1.88;;;;;;;;;;1043207;28;20063;-29
2023/03/07 02:32:59;;;;;;;4.30;1.85;;;;;;;;;;1042696;28;20447;-28
2023/03/07 02:33:29;;;;;;;7.15;3.13;;;;;;;;;;1041981;28;20070;-28
2023/03/07 02:34:01;;;;;;;4.63;1.88;;;;;;;;;;1040616;28;20021;-29
2023/03/07 02:34:31;;;;;;;5.78;2.13;;;;;;;;;;1041424;28;20029;-28
2023/03/07 02:35:09;;;;;;;13.80;2.60;;;;;;;;;;1039887;28;20508;-28
2023/03/07 02:35:39;;;;;;;9.50;1.70;;;;;;;;;;1041752;28;20033;-28
2023/03/07 02:36:13;;;;;;;5.65;2.58;;;;;;;;;;1042452;28;20476;-28
2023/03/07 02:36:44;;;;;;;7.80;2.42;;;;;;;;;;1040985;28;20112;-28
2023/03/07 02:37:24;;;;;;;8.20;2.63;;;;;;;;;;1041717;28;20035;-28
2023/03/07 02:37:56;;;;;;;9.88;2.05;;;;;;;;;;1042428;28;20059;-28
2023/03/07 02:38:26;;;;;;;8.25;2.47;;;;;;;;;;1042136;28;20060;-26
2023/03/07 02:38:58;;;;;;;8.95;2.15;;;;;;;;;;1041994;28;20027;-28
2023/03/07 02:39:29;;;;;;;11.60;3.30;;;;;;;;;;1042206;28;20110;-29
2023/03/07 02:40:04;;;;;;;7.20;3.78;;;;;;;;;;1037535;28;20091;-28
2023/03/07 02:40:35;;;;;;;12.32;1.88;;;;;;;;;;1036867;28;20107;-27
2023/03/07 02:41:07;;;;;;;6.80;3.33;;;;;;;;;;1038094;28;20083;-28
2023/03/07 02:41:39;;;;;;;4.68;2.05;;;;;;;;;;1039315;28;20026;-28
2023/03/07 02:42:17;;;;;;;7.20;2.15;;;;;;;;;;1042355;28;20029;-27
2023/03/07 02:42:48;;;;;;;3.28;1.83;;;;;;;;;;1041721;28;20128;-28
2023/03/07 02:43:19;;;;;;;3.55;1.52;;;;;;;;;;1041523;28;20476;-29
2023/03/07 02:43:50;;;;;;;4.25;1.23;;;;;;;;;;1040669;28;20160;-27
2023/03/07 02:44:20;;;;;;;2.78;1.80;;;;;;;;;;1041887;28;20714;-28
2023/03/07 02:44:58;;;;;;;14.10;1.52;;;;;;;;;;1040179;28;20048;-28
2023/03/07 02:45:29;;;;;;;2.60;1.67;;;;;;;;;;1039689;28;20037;-28
2023/03/07 02:45:59;;;;;;;2.88;1.58;;;;;;;;;;1040679;28;20037;-28
2023/03/07 02:46:30;;;;;;;3.88;1.40;;;;;;;;;;1042231;28;20716;-28
2023/03/07 02:47:00;;;;;;;10.18;2.15;;;;;;;;;;1042242;28;20024;-29
2023/03/07 02:47:31;;;;;;;0.82;0.80;;;;;;;;;;1040907;28;20802;-29
2023/03/07 02:48:01;;;;;;;9.15;2.28;;;;;;;;;;1042016;28;20560;-28
2023/03/07 02:48:32;;;;;;;10.45;1.95;;;;;;;;;;1042800;28;20021;-29
2023/03/07 02:49:03;;;;;;;13.32;3.15;;;;;;;;;;1042633;28;20048;-28
2023/03/07 02:49:34;;;;;;;5.85;3.55;;;;;;;;;;1042656;28;20024;-28
2023/03/07 02:50:05;;;;;;;3.65;1.92;;;;;;;;;;1043249;28;20391;-29
2023/03/07 02:50:36;;;;;;;2.65;0.95;;;;;;;;;;1041506;28;20029;-29
2023/03/07 02:51:07;;;;;;;2.70;1.33;;;;;;;;;;1041717;28;20029;-28
2023/03/07 02:51:38;;;;;;;4.75;1.45;;;;;;;;;;1041917;28;20016;-28
2023/03/07 02:52:11;;;;;;;2.60;1.65;;;;;;;;;;1041937;28;20063;-27
2023/03/07 02:52:42;;;;;;;8.32;2.90;;;;;;;;;;1038697;28;20024;-27
2023/03/07 02:53:17;;;;;;;3.30;1.75;;;;;;;;;;1038094;28;20033;-28
2023/03/07 02:53:50;;;;;;;11.30;2.38;;;;;;;;;;1037908;28;20029;-29
2023/03/07 02:54:24;;;;;;;12.98;2.35;;;;;;;;;;1037664;28;20036;-29
2023/03/07 02:54:57;;;;;;;6.88;2.13;;;;;;;;;;1037997;28;20449;-27
2023/03/07 02:55:29;;;;;;;13.10;3.92;;;;;;;;;;1033304;28;20124;-29
2023/03/07 02:56:00;;;;;;;2.00;1.05;;;;;;;;;;1034760;28;20026;-28
2023/03/07 02:56:30;;;;;;;2.92;1.70;;;;;;;;;;1036422;28;20436;-28
2023/03/07 02:57:01;;;;;;;2.85;1.77;;;;;;;;;;1038630;28;20028;-28
2023/03/07 02:57:32;;;;;;;9.80;2.95;;;;;;;;;;1041460;28;20032;-27
2023/03/07 02:58:02;;;;;;;2.60;1.40;;;;;;;;;;1041565;28;20028;-26
2023/03/07 02:58:33;;;;;;;10.35;2.45;;;;;;;;;;1042711;28;20115;-27
2023/03/07 02:59:04;;;;;;;12.50;1.88;;;;;;;;;;1041843;28;20013;-28
2023/03/07 02:59:35;;;;;;;2.72;1.75;;;;;;;;;;1042633;28;20119;-28
2023/03/07 03:00:09;;;;;;;4.70;2.65;;;;;;;;;;1042315;28;20050;-29
2023/03/07 03:00:41;;;;;;;5.70;1.45;;;;;;;;;;1043094;28;20108;-29
2023/03/07 03:01:13;;;;;;;2.63;1.35;;;;;;;;;;1042991;28;20024;-29
2023/03/07 03:01:45;;;;;;;4.80;2.28;;;;;;;;;;1038914;28;20025;-30
2023/03/07 03:02:16;;;;;;;18.05;2.22;;;;;;;;;;1034993;28;20053;-29
2023/03/07 03:02:46;;;;;;;10.15;4.63;;;;;;;;;;1034811;28;20120;-30
2023/03/07 03:03:18;;;;;;;7.10;2.03;;;;;;;;;;1036455;28;20026;-28
2023/03/07 03:03:49;;;;;;;7.10;2.10;;;;;;;;;;1041314;28;20033;-29
2023/03/07 03:04:19;;;;;;;2.67;1.33;;;;;;;;;;1043240;28;20464;-28
2023/03/07 03:04:50;;;;;;;14.10;1.77;;;;;;;;;;1039265;28;20111;-29
2023/03/07 03:05:21;;;;;;;3.08;1.88;;;;;;;;;;1038585;28;20083;-30
2023/03/07 03:05:51;;;;;;;3.45;1.60;;;;;;;;;;1039549;28;20146;-30
2023/03/07 03:06:23;;;;;;;6.63;2.13;;;;;;;;;;1039269;28;20409;-26
2023/03/07 03:06:53;;;;;;;8.98;2.65;;;;;;;;;;1041867;28;20032;-28
2023/03/07 03:07:24;;;;;;;1.65;1.40;;;;;;;;;;1042499;28;20063;-28
2023/03/07 03:07:55;;;;;;;8.15;3.17;;;;;;;;;;1039645;28;20604;-28
2023/03/07 03:08:25;;;;;;;16.73;2.55;;;;;;;;;;1042124;28;20025;-29
2023/03/07 03:08:58;;;;;;;6.60;2.17;;;;;;;;;;1041155;28;20609;-28
2023/03/07 03:09:30;;;;;;;5.88;2.15;;;;;;;;;;1042972;28;20043;-28
2023/03/07 03:10:04;;;;;;;3.38;1.98;;;;;;;;;;1039276;28;20040;-28
2023/03/07 03:10:39;;;;;;;4.13;1.60;;;;;;;;;;1041299;28;20017;-28